sensor_id;sensor_type;location;lat;lon;timestamp;temperature;humidity
8563;DHT22;16392;52.508;13.468;2024-03-06T00:00:11;3.00;99.90
8563;DHT22;16392;52.508;13.468;2024-03-06T00:02:40;3.00;99.90
8563;DHT22;16392;52.508;13.468;2024-03-06T00:05:07;2.90;99.90
8563;DHT22;16392;52.508;13.468;2024-03-06T00:07:34;2.90;99.90
8563;DHT22;16392;52.508;13.468;2024-03-06T00:10:00;2.80;99.90
8563;DHT22;16392;52.508;13.468;2024-03-06T00:12:27;2.80;99.90
8563;DHT22;16392;52.508;13.468;2024-03-06T00:14:54;2.80;99.90
8563;DHT22;16392;52.508;13.468;2024-03-06T00:17:20;2.90;99.90
8563;DHT22;16392;52.508;13.468;2024-03-06T00:19:48;2.90;99.90
8563;DHT22;16392;52.508;13.468;2024-03-06T00:22:15;2.80;99.90
8563;DHT22;16392;52.508;13.468;2024-03-06T00:24:42;2.80;99.90
8563;DHT22;16392;52.508;13.468;2024-03-06T00:27:09;2.70;99.90
8563;DHT22;16392;52.508;13.468;2024-03-06T00:29:35;2.70;99.90
8563;DHT22;16392;52.508;13.468;2024-03-06T00:32:04;2.70;99.90
8563;DHT22;16392;52.508;13.468;2024-03-06T00:34:30;2.70;99.90
8563;DHT22;16392;52.508;13.468;2024-03-06T00:36:58;2.70;99.90
8563;DHT22;16392;52.508;13.468;2024-03-06T00:39:25;2.80;99.90
8563;DHT22;16392;52.508;13.468;2024-03-06T00:41:51;2.90;99.90
8563;DHT22;16392;52.508;13.468;2024-03-06T00:44:19;2.90;99.90
8563;DHT22;16392;52.508;13.468;2024-03-06T00:46:45;2.80;99.90
8563;DHT22;16392;52.508;13.468;2024-03-06T00:49:12;2.80;99.90
8563;DHT22;16392;52.508;13.468;2024-03-06T00:51:39;2.80;99.90
8563;DHT22;16392;52.508;13.468;2024-03-06T00:54:07;2.80;99.90
8563;DHT22;16392;52.508;13.468;2024-03-06T00:56:37;2.70;99.90
8563;DHT22;16392;52.508;13.468;2024-03-06T00:59:03;2.70;99.90
8563;DHT22;16392;52.508;13.468;2024-03-06T01:01:30;2.50;99.90
8563;DHT22;16392;52.508;13.468;2024-03-06T01:03:57;2.50;99.90
8563;DHT22;16392;52.508;13.468;2024-03-06T01:06:23;2.40;99.90
8563;DHT22;16392;52.508;13.468;2024-03-06T01:08:50;2.40;99.90
8563;DHT22;16392;52.508;13.468;2024-03-06T01:11:17;2.60;99.90
8563;DHT22;16392;52.508;13.468;2024-03-06T01:13:44;2.70;99.90
8563;DHT22;16392;52.508;13.468;2024-03-06T01:16:11;2.80;99.90
8563;DHT22;16392;52.508;13.468;2024-03-06T01:18:38;2.70;99.90
8563;DHT22;16392;52.508;13.468;2024-03-06T01:21:04;2.80;99.90
8563;DHT22;16392;52.508;13.468;2024-03-06T01:23:31;2.80;99.90
8563;DHT22;16392;52.508;13.468;2024-03-06T01:25:57;2.80;99.90
8563;DHT22;16392;52.508;13.468;2024-03-06T01:28:26;2.80;99.90
8563;DHT22;16392;52.508;13.468;2024-03-06T01:30:52;2.80;99.90
8563;DHT22;16392;52.508;13.468;2024-03-06T01:33:19;2.90;99.90
8563;DHT22;16392;52.508;13.468;2024-03-06T01:35:47;2.90;99.90
8563;DHT22;16392;52.508;13.468;2024-03-06T01:38:13;2.90;99.90
8563;DHT22;16392;52.508;13.468;2024-03-06T01:40:43;2.90;99.90
8563;DHT22;16392;52.508;13.468;2024-03-06T01:43:18;2.90;99.90
8563;DHT22;16392;52.508;13.468;2024-03-06T01:45:47;2.80;99.90
8563;DHT22;16392;52.508;13.468;2024-03-06T01:48:14;2.70;99.90
8563;DHT22;16392;52.508;13.468;2024-03-06T01:50:42;2.70;99.90
8563;DHT22;16392;52.508;13.468;2024-03-06T01:53:09;2.70;99.90
8563;DHT22;16392;52.508;13.468;2024-03-06T01:55:36;2.60;99.90
8563;DHT22;16392;52.508;13.468;2024-03-06T01:58:03;2.60;99.90
8563;DHT22;16392;52.508;13.468;2024-03-06T02:00:31;2.40;99.90
8563;DHT22;16392;52.508;13.468;2024-03-06T02:03:00;2.30;99.90
8563;DHT22;16392;52.508;13.468;2024-03-06T02:05:28;2.30;99.90
8563;DHT22;16392;52.508;13.468;2024-03-06T02:07:57;2.30;99.90
8563;DHT22;16392;52.508;13.468;2024-03-06T02:10:24;2.30;99.90
8563;DHT22;16392;52.508;13.468;2024-03-06T02:12:51;2.40;99.90
8563;DHT22;16392;52.508;13.468;2024-03-06T02:15:19;2.50;99.90
8563;DHT22;16392;52.508;13.468;2024-03-06T02:17:45;2.40;99.90
8563;DHT22;16392;52.508;13.468;2024-03-06T02:20:13;2.30;99.90
8563;DHT22;16392;52.508;13.468;2024-03-06T02:22:42;2.20;99.90
8563;DHT22;16392;52.508;13.468;2024-03-06T02:25:09;2.20;99.90
8563;DHT22;16392;52.508;13.468;2024-03-06T02:27:38;2.20;99.90
8563;DHT22;16392;52.508;13.468;2024-03-06T02:30:06;2.10;99.90
8563;DHT22;16392;52.508;13.468;2024-03-06T02:32:33;2.10;99.90
8563;DHT22;16392;52.508;13.468;2024-03-06T02:35:00;2.10;99.90
8563;DHT22;16392;52.508;13.468;2024-03-06T02:37:28;2.10;99.90
8563;DHT22;16392;52.508;13.468;2024-03-06T02:39:56;2.10;99.90
8563;DHT22;16392;52.508;13.468;2024-03-06T02:42:23;2.00;99.90
8563;DHT22;16392;52.508;13.468;2024-03-06T02:44:50;2.10;99.90
8563;DHT22;16392;52.508;13.468;2024-03-06T02:47:19;2.20;99.90
8563;DHT22;16392;52.508;13.468;2024-03-06T02:49:46;2.10;99.90
8563;DHT22;16392;52.508;13.468;2024-03-06T02:52:13;2.10;99.90
8563;DHT22;16392;52.508;13.468;2024-03-06T02:54:40;2.00;99.90
8563;DHT22;16392;52.508;13.468;2024-03-06T02:57:08;1.90;99.90
8563;DHT22;16392;52.508;13.468;2024-03-06T02:59:36;1.90;99.90
8563;DHT22;16392;52.508;13.468;2024-03-06T03:02:02;1.90;99.90
8563;DHT22;16392;52.508;13.468;2024-03-06T03:04:29;2.00;99.90
8563;DHT22;16392;52.508;13.468;2024-03-06T03:06:56;2.10;99.90
8563;DHT22;16392;52.508;13.468;2024-03-06T03:09:22;2.20;99.90
8563;DHT22;16392;52.508;13.468;2024-03-06T03:11:49;2.10;99.90
8563;DHT22;16392;52.508;13.468;2024-03-06T03:14:17;2.20;99.90
8563;DHT22;16392;52.508;13.468;2024-03-06T03:16:44;2.20;99.90
8563;DHT22;16392;52.508;13.468;2024-03-06T03:19:10;2.20;99.90
8563;DHT22;16392;52.508;13.468;2024-03-06T03:21:37;2.20;99.90
8563;DHT22;16392;52.508;13.468;2024-03-06T03:24:05;2.30;99.90
8563;DHT22;16392;52.508;13.468;2024-03-06T03:26:31;2.10;99.90
8563;DHT22;16392;52.508;13.468;2024-03-06T03:28:58;2.10;99.90
8563;DHT22;16392;52.508;13.468;2024-03-06T03:31:26;2.00;99.90
8563;DHT22;16392;52.508;13.468;2024-03-06T03:33:53;1.90;99.90
8563;DHT22;16392;52.508;13.468;2024-03-06T03:36:19;1.90;99.90
8563;DHT22;16392;52.508;13.468;2024-03-06T03:38:46;1.80;99.90
8563;DHT22;16392;52.508;13.468;2024-03-06T03:41:13;1.70;99.90
8563;DHT22;16392;52.508;13.468;2024-03-06T03:43:42;1.90;99.90
8563;DHT22;16392;52.508;13.468;2024-03-06T03:46:09;1.80;99.90
8563;DHT22;16392;52.508;13.468;2024-03-06T03:48:37;1.80;99.90
8563;DHT22;16392;52.508;13.468;2024-03-06T03:51:04;1.80;99.90
8563;DHT22;16392;52.508;13.468;2024-03-06T03:53:32;1.70;99.90
8563;DHT22;16392;52.508;13.468;2024-03-06T03:55:59;1.70;99.90
8563;DHT22;16392;52.508;13.468;2024-03-06T03:58:26;1.60;99.90
8563;DHT22;16392;52.508;13.468;2024-03-06T04:00:53;1.50;99.90
8563;DHT22;16392;52.508;13.468;2024-03-06T04:03:21;1.40;99.90
8563;DHT22;16392;52.508;13.468;2024-03-06T04:05:50;1.50;99.90
8563;DHT22;16392;52.508;13.468;2024-03-06T04:08:17;1.40;99.90
8563;DHT22;16392;52.508;13.468;2024-03-06T04:10:44;1.40;99.90
8563;DHT22;16392;52.508;13.468;2024-03-06T04:13:11;1.30;99.90
8563;DHT22;16392;52.508;13.468;2024-03-06T04:15:38;1.40;99.90
8563;DHT22;16392;52.508;13.468;2024-03-06T04:18:05;1.30;99.90
8563;DHT22;16392;52.508;13.468;2024-03-06T04:20:31;1.30;99.90
8563;DHT22;16392;52.508;13.468;2024-03-06T04:22:59;1.30;99.90
8563;DHT22;16392;52.508;13.468;2024-03-06T04:25:26;1.30;99.90
8563;DHT22;16392;52.508;13.468;2024-03-06T04:27:53;1.10;99.90
8563;DHT22;16392;52.508;13.468;2024-03-06T04:30:19;1.10;99.90
8563;DHT22;16392;52.508;13.468;2024-03-06T04:32:46;1.20;99.90
8563;DHT22;16392;52.508;13.468;2024-03-06T04:35:14;1.30;99.90
8563;DHT22;16392;52.508;13.468;2024-03-06T04:37:41;1.30;99.90
8563;DHT22;16392;52.508;13.468;2024-03-06T04:40:10;1.40;99.90
8563;DHT22;16392;52.508;13.468;2024-03-06T04:42:40;1.30;99.90
8563;DHT22;16392;52.508;13.468;2024-03-06T04:45:10;1.20;99.90
8563;DHT22;16392;52.508;13.468;2024-03-06T04:47:37;1.10;99.90
8563;DHT22;16392;52.508;13.468;2024-03-06T04:50:08;1.10;99.90
8563;DHT22;16392;52.508;13.468;2024-03-06T04:52:35;0.90;99.90
8563;DHT22;16392;52.508;13.468;2024-03-06T04:55:01;1.00;99.90
8563;DHT22;16392;52.508;13.468;2024-03-06T04:57:29;1.10;99.90
8563;DHT22;16392;52.508;13.468;2024-03-06T04:59:57;1.10;99.90
8563;DHT22;16392;52.508;13.468;2024-03-06T05:02:24;1.10;99.90
8563;DHT22;16392;52.508;13.468;2024-03-06T05:04:51;1.10;99.90
8563;DHT22;16392;52.508;13.468;2024-03-06T05:07:17;1.20;99.90
8563;DHT22;16392;52.508;13.468;2024-03-06T05:09:44;1.10;99.90
8563;DHT22;16392;52.508;13.468;2024-03-06T05:12:11;1.30;99.90
8563;DHT22;16392;52.508;13.468;2024-03-06T05:14:39;1.30;99.90
8563;DHT22;16392;52.508;13.468;2024-03-06T05:17:05;1.30;99.90
8563;DHT22;16392;52.508;13.468;2024-03-06T05:19:32;1.30;99.90
8563;DHT22;16392;52.508;13.468;2024-03-06T05:21:58;1.30;99.90
8563;DHT22;16392;52.508;13.468;2024-03-06T05:24:25;1.20;99.90
8563;DHT22;16392;52.508;13.468;2024-03-06T05:26:52;1.20;99.90
8563;DHT22;16392;52.508;13.468;2024-03-06T05:29:18;1.20;99.90
8563;DHT22;16392;52.508;13.468;2024-03-06T05:31:46;1.30;99.90
8563;DHT22;16392;52.508;13.468;2024-03-06T05:34:13;1.40;99.90
8563;DHT22;16392;52.508;13.468;2024-03-06T05:36:40;1.50;99.90
8563;DHT22;16392;52.508;13.468;2024-03-06T05:39:06;1.60;99.90
8563;DHT22;16392;52.508;13.468;2024-03-06T05:41:37;1.60;99.90
8563;DHT22;16392;52.508;13.468;2024-03-06T05:44:04;1.70;99.90
8563;DHT22;16392;52.508;13.468;2024-03-06T05:46:31;1.60;99.90
8563;DHT22;16392;52.508;13.468;2024-03-06T05:48:59;1.60;99.90
8563;DHT22;16392;52.508;13.468;2024-03-06T05:51:27;1.70;99.90
8563;DHT22;16392;52.508;13.468;2024-03-06T05:53:54;1.70;99.90
8563;DHT22;16392;52.508;13.468;2024-03-06T05:56:20;1.70;99.90
8563;DHT22;16392;52.508;13.468;2024-03-06T05:58:47;1.70;99.90
8563;DHT22;16392;52.508;13.468;2024-03-06T06:01:15;1.90;99.90
8563;DHT22;16392;52.508;13.468;2024-03-06T06:03:45;1.90;99.90
8563;DHT22;16392;52.508;13.468;2024-03-06T06:06:14;2.00;99.90
8563;DHT22;16392;52.508;13.468;2024-03-06T06:08:41;2.00;99.90
8563;DHT22;16392;52.508;13.468;2024-03-06T06:11:09;2.10;99.90
8563;DHT22;16392;52.508;13.468;2024-03-06T06:13:36;2.20;99.90
8563;DHT22;16392;52.508;13.468;2024-03-06T06:16:03;2.30;99.90
8563;DHT22;16392;52.508;13.468;2024-03-06T06:18:30;2.40;99.90
8563;DHT22;16392;52.508;13.468;2024-03-06T06:20:57;2.50;99.90
8563;DHT22;16392;52.508;13.468;2024-03-06T06:23:25;2.70;99.90
8563;DHT22;16392;52.508;13.468;2024-03-06T06:25:52;2.80;99.90
8563;DHT22;16392;52.508;13.468;2024-03-06T06:28:19;3.00;99.90
8563;DHT22;16392;52.508;13.468;2024-03-06T06:30:45;3.30;99.90
8563;DHT22;16392;52.508;13.468;2024-03-06T06:33:12;3.40;99.90
8563;DHT22;16392;52.508;13.468;2024-03-06T06:35:39;3.60;99.90
8563;DHT22;16392;52.508;13.468;2024-03-06T06:38:06;3.70;99.90
8563;DHT22;16392;52.508;13.468;2024-03-06T06:40:34;3.90;99.90
8563;DHT22;16392;52.508;13.468;2024-03-06T06:43:01;3.90;99.90
8563;DHT22;16392;52.508;13.468;2024-03-06T06:45:28;4.00;99.90
8563;DHT22;16392;52.508;13.468;2024-03-06T06:47:55;4.10;99.90
8563;DHT22;16392;52.508;13.468;2024-03-06T06:50:22;4.20;99.90
8563;DHT22;16392;52.508;13.468;2024-03-06T06:52:51;4.50;99.90
8563;DHT22;16392;52.508;13.468;2024-03-06T06:55:18;4.80;99.90
8563;DHT22;16392;52.508;13.468;2024-03-06T06:57:49;5.10;99.90
8563;DHT22;16392;52.508;13.468;2024-03-06T07:00:18;5.40;99.90
8563;DHT22;16392;52.508;13.468;2024-03-06T07:02:47;5.20;99.90
8563;DHT22;16392;52.508;13.468;2024-03-06T07:05:14;5.40;99.90
8563;DHT22;16392;52.508;13.468;2024-03-06T07:07:41;5.50;99.90
8563;DHT22;16392;52.508;13.468;2024-03-06T07:10:08;5.90;99.90
8563;DHT22;16392;52.508;13.468;2024-03-06T07:12:35;6.20;99.90
8563;DHT22;16392;52.508;13.468;2024-03-06T07:15:04;6.00;99.90
8563;DHT22;16392;52.508;13.468;2024-03-06T07:17:31;6.50;99.90
8563;DHT22;16392;52.508;13.468;2024-03-06T07:19:58;6.70;99.90
8563;DHT22;16392;52.508;13.468;2024-03-06T07:22:26;7.20;99.90
8563;DHT22;16392;52.508;13.468;2024-03-06T07:24:52;6.90;99.90
8563;DHT22;16392;52.508;13.468;2024-03-06T07:27:20;6.60;99.90
8563;DHT22;16392;52.508;13.468;2024-03-06T07:29:46;7.00;99.90
8563;DHT22;16392;52.508;13.468;2024-03-06T07:32:14;6.90;99.90
8563;DHT22;16392;52.508;13.468;2024-03-06T07:34:41;7.30;99.90
8563;DHT22;16392;52.508;13.468;2024-03-06T07:37:07;8.00;99.90
8563;DHT22;16392;52.508;13.468;2024-03-06T07:39:34;8.60;99.90
8563;DHT22;16392;52.508;13.468;2024-03-06T07:42:01;8.50;99.90
8563;DHT22;16392;52.508;13.468;2024-03-06T07:44:28;8.40;99.90
8563;DHT22;16392;52.508;13.468;2024-03-06T07:46:54;8.60;99.90
8563;DHT22;16392;52.508;13.468;2024-03-06T07:49:22;8.70;99.90
8563;DHT22;16392;52.508;13.468;2024-03-06T07:51:50;8.70;99.90
8563;DHT22;16392;52.508;13.468;2024-03-06T07:54:17;8.80;99.90
8563;DHT22;16392;52.508;13.468;2024-03-06T07:56:44;9.50;99.90
8563;DHT22;16392;52.508;13.468;2024-03-06T07:59:11;9.90;99.90
8563;DHT22;16392;52.508;13.468;2024-03-06T08:01:38;9.80;99.90
8563;DHT22;16392;52.508;13.468;2024-03-06T08:04:04;9.50;99.90
8563;DHT22;16392;52.508;13.468;2024-03-06T08:06:32;9.50;99.90
8563;DHT22;16392;52.508;13.468;2024-03-06T08:09:03;9.60;99.90
8563;DHT22;16392;52.508;13.468;2024-03-06T08:11:30;9.60;99.90
8563;DHT22;16392;52.508;13.468;2024-03-06T08:13:57;9.30;99.90
8563;DHT22;16392;52.508;13.468;2024-03-06T08:16:24;9.30;99.90
8563;DHT22;16392;52.508;13.468;2024-03-06T08:18:50;9.50;99.90
8563;DHT22;16392;52.508;13.468;2024-03-06T08:21:17;9.60;99.90
8563;DHT22;16392;52.508;13.468;2024-03-06T08:23:46;9.90;99.90
8563;DHT22;16392;52.508;13.468;2024-03-06T08:26:13;10.30;99.90
8563;DHT22;16392;52.508;13.468;2024-03-06T08:28:40;11.10;99.90
8563;DHT22;16392;52.508;13.468;2024-03-06T08:31:06;10.50;99.90
8563;DHT22;16392;52.508;13.468;2024-03-06T08:33:34;10.30;99.90
8563;DHT22;16392;52.508;13.468;2024-03-06T08:36:01;10.10;99.90
8563;DHT22;16392;52.508;13.468;2024-03-06T08:38:27;10.20;99.90
8563;DHT22;16392;52.508;13.468;2024-03-06T08:40:55;10.80;99.90
8563;DHT22;16392;52.508;13.468;2024-03-06T08:43:22;9.80;99.90
8563;DHT22;16392;52.508;13.468;2024-03-06T08:45:49;9.40;99.90
8563;DHT22;16392;52.508;13.468;2024-03-06T08:48:15;10.40;99.90
8563;DHT22;16392;52.508;13.468;2024-03-06T08:50:42;10.20;99.90
8563;DHT22;16392;52.508;13.468;2024-03-06T08:53:08;10.60;99.90
8563;DHT22;16392;52.508;13.468;2024-03-06T08:55:35;11.20;99.90
8563;DHT22;16392;52.508;13.468;2024-03-06T08:58:04;11.20;99.90
8563;DHT22;16392;52.508;13.468;2024-03-06T09:00:30;11.10;99.90
8563;DHT22;16392;52.508;13.468;2024-03-06T09:02:57;10.80;99.90
8563;DHT22;16392;52.508;13.468;2024-03-06T09:05:24;10.50;99.90
8563;DHT22;16392;52.508;13.468;2024-03-06T09:07:51;11.90;99.90
8563;DHT22;16392;52.508;13.468;2024-03-06T09:10:18;11.60;99.90
8563;DHT22;16392;52.508;13.468;2024-03-06T09:12:45;11.30;99.90
8563;DHT22;16392;52.508;13.468;2024-03-06T09:15:14;11.50;99.90
8563;DHT22;16392;52.508;13.468;2024-03-06T09:17:41;10.60;99.90
8563;DHT22;16392;52.508;13.468;2024-03-06T09:20:10;11.10;99.90
8563;DHT22;16392;52.508;13.468;2024-03-06T09:22:37;10.80;99.90
8563;DHT22;16392;52.508;13.468;2024-03-06T09:25:05;11.70;99.90
8563;DHT22;16392;52.508;13.468;2024-03-06T09:27:31;12.50;99.90
8563;DHT22;16392;52.508;13.468;2024-03-06T09:29:58;13.20;99.90
8563;DHT22;16392;52.508;13.468;2024-03-06T09:32:26;13.80;99.90
8563;DHT22;16392;52.508;13.468;2024-03-06T09:34:53;12.90;99.90
8563;DHT22;16392;52.508;13.468;2024-03-06T09:37:20;12.10;99.90
8563;DHT22;16392;52.508;13.468;2024-03-06T09:39:46;12.40;99.90
8563;DHT22;16392;52.508;13.468;2024-03-06T09:42:13;12.50;99.90
8563;DHT22;16392;52.508;13.468;2024-03-06T09:44:41;11.20;99.90
8563;DHT22;16392;52.508;13.468;2024-03-06T09:47:12;12.00;99.90
8563;DHT22;16392;52.508;13.468;2024-03-06T09:49:40;12.10;99.90
8563;DHT22;16392;52.508;13.468;2024-03-06T09:52:07;12.00;99.90
8563;DHT22;16392;52.508;13.468;2024-03-06T09:54:34;11.20;99.90
8563;DHT22;16392;52.508;13.468;2024-03-06T09:57:00;10.60;99.90
8563;DHT22;16392;52.508;13.468;2024-03-06T09:59:27;9.90;99.90
8563;DHT22;16392;52.508;13.468;2024-03-06T10:01:55;9.30;99.90
8563;DHT22;16392;52.508;13.468;2024-03-06T10:04:23;9.10;99.90
8563;DHT22;16392;52.508;13.468;2024-03-06T10:06:53;10.00;99.90
8563;DHT22;16392;52.508;13.468;2024-03-06T10:09:20;10.60;99.90
8563;DHT22;16392;52.508;13.468;2024-03-06T10:11:47;10.20;99.90
8563;DHT22;16392;52.508;13.468;2024-03-06T10:14:15;9.60;99.90
8563;DHT22;16392;52.508;13.468;2024-03-06T10:16:52;8.70;99.90
8563;DHT22;16392;52.508;13.468;2024-03-06T10:19:20;9.00;99.90
8563;DHT22;16392;52.508;13.468;2024-03-06T10:21:47;10.70;99.90
8563;DHT22;16392;52.508;13.468;2024-03-06T10:24:18;10.50;99.90
8563;DHT22;16392;52.508;13.468;2024-03-06T10:26:46;10.50;99.90
8563;DHT22;16392;52.508;13.468;2024-03-06T10:29:15;11.60;99.90
8563;DHT22;16392;52.508;13.468;2024-03-06T10:31:48;10.40;99.90
8563;DHT22;16392;52.508;13.468;2024-03-06T10:34:16;9.60;99.90
8563;DHT22;16392;52.508;13.468;2024-03-06T10:36:43;10.10;99.90
8563;DHT22;16392;52.508;13.468;2024-03-06T10:39:11;11.30;99.90
8563;DHT22;16392;52.508;13.468;2024-03-06T10:41:40;12.50;99.90
8563;DHT22;16392;52.508;13.468;2024-03-06T10:44:12;12.50;99.90
8563;DHT22;16392;52.508;13.468;2024-03-06T10:46:43;13.30;99.90
8563;DHT22;16392;52.508;13.468;2024-03-06T10:49:11;13.90;99.90
8563;DHT22;16392;52.508;13.468;2024-03-06T10:51:40;14.30;99.90
8563;DHT22;16392;52.508;13.468;2024-03-06T10:54:09;13.90;99.90
8563;DHT22;16392;52.508;13.468;2024-03-06T10:56:40;15.00;99.90
8563;DHT22;16392;52.508;13.468;2024-03-06T10:59:10;13.90;99.90
8563;DHT22;16392;52.508;13.468;2024-03-06T11:01:39;12.20;99.90
8563;DHT22;16392;52.508;13.468;2024-03-06T11:04:06;10.70;99.90
8563;DHT22;16392;52.508;13.468;2024-03-06T11:06:33;10.00;99.90
8563;DHT22;16392;52.508;13.468;2024-03-06T11:09:00;9.20;99.90
8563;DHT22;16392;52.508;13.468;2024-03-06T11:11:28;9.20;99.90
8563;DHT22;16392;52.508;13.468;2024-03-06T11:14:00;9.80;99.90
8563;DHT22;16392;52.508;13.468;2024-03-06T11:16:28;10.30;99.90
8563;DHT22;16392;52.508;13.468;2024-03-06T11:19:05;11.80;99.90
8563;DHT22;16392;52.508;13.468;2024-03-06T11:21:32;12.90;99.90
8563;DHT22;16392;52.508;13.468;2024-03-06T11:24:13;13.20;99.90
8563;DHT22;16392;52.508;13.468;2024-03-06T11:26:42;14.40;99.90
8563;DHT22;16392;52.508;13.468;2024-03-06T11:29:10;13.40;99.90
8563;DHT22;16392;52.508;13.468;2024-03-06T11:31:37;13.90;99.90
8563;DHT22;16392;52.508;13.468;2024-03-06T11:34:04;15.00;99.90
8563;DHT22;16392;52.508;13.468;2024-03-06T11:36:31;15.00;99.90
8563;DHT22;16392;52.508;13.468;2024-03-06T11:38:58;14.40;99.90
8563;DHT22;16392;52.508;13.468;2024-03-06T11:41:26;13.40;99.90
8563;DHT22;16392;52.508;13.468;2024-03-06T11:43:55;12.90;99.90
8563;DHT22;16392;52.508;13.468;2024-03-06T11:46:40;13.40;99.90
8563;DHT22;16392;52.508;13.468;2024-03-06T11:49:14;13.90;99.90
8563;DHT22;16392;52.508;13.468;2024-03-06T11:51:41;15.40;99.90
8563;DHT22;16392;52.508;13.468;2024-03-06T11:54:08;14.90;99.90
8563;DHT22;16392;52.508;13.468;2024-03-06T11:56:38;13.40;99.90
8563;DHT22;16392;52.508;13.468;2024-03-06T11:59:05;12.10;99.90
8563;DHT22;16392;52.508;13.468;2024-03-06T12:01:34;11.20;99.90
8563;DHT22;16392;52.508;13.468;2024-03-06T12:04:02;11.20;99.90
8563;DHT22;16392;52.508;13.468;2024-03-06T12:06:29;11.60;99.90
8563;DHT22;16392;52.508;13.468;2024-03-06T12:08:56;11.60;99.90
8563;DHT22;16392;52.508;13.468;2024-03-06T12:11:23;11.20;99.90
8563;DHT22;16392;52.508;13.468;2024-03-06T12:13:51;10.40;99.90
8563;DHT22;16392;52.508;13.468;2024-03-06T12:16:18;10.00;99.90
8563;DHT22;16392;52.508;13.468;2024-03-06T12:18:46;11.90;99.90
8563;DHT22;16392;52.508;13.468;2024-03-06T12:21:12;13.50;99.90
8563;DHT22;16392;52.508;13.468;2024-03-06T12:23:39;14.30;99.90
8563;DHT22;16392;52.508;13.468;2024-03-06T12:26:08;13.50;99.90
8563;DHT22;16392;52.508;13.468;2024-03-06T12:28:37;13.80;99.90
8563;DHT22;16392;52.508;13.468;2024-03-06T12:31:04;13.40;99.90
8563;DHT22;16392;52.508;13.468;2024-03-06T12:33:31;12.20;99.90
8563;DHT22;16392;52.508;13.468;2024-03-06T12:36:03;11.00;99.90
8563;DHT22;16392;52.508;13.468;2024-03-06T12:38:30;10.20;99.90
8563;DHT22;16392;52.508;13.468;2024-03-06T12:40:57;9.90;99.90
8563;DHT22;16392;52.508;13.468;2024-03-06T12:43:24;9.70;99.90
8563;DHT22;16392;52.508;13.468;2024-03-06T12:45:51;10.90;99.90
8563;DHT22;16392;52.508;13.468;2024-03-06T12:48:20;11.80;99.90
8563;DHT22;16392;52.508;13.468;2024-03-06T12:50:47;11.00;99.90
8563;DHT22;16392;52.508;13.468;2024-03-06T12:53:18;10.50;99.90
8563;DHT22;16392;52.508;13.468;2024-03-06T12:55:45;9.90;99.90
8563;DHT22;16392;52.508;13.468;2024-03-06T12:58:12;10.30;99.90
8563;DHT22;16392;52.508;13.468;2024-03-06T13:00:38;10.00;99.90
8563;DHT22;16392;52.508;13.468;2024-03-06T13:03:05;10.40;99.90
8563;DHT22;16392;52.508;13.468;2024-03-06T13:05:32;13.00;99.90
8563;DHT22;16392;52.508;13.468;2024-03-06T13:07:59;13.90;99.90
8563;DHT22;16392;52.508;13.468;2024-03-06T13:10:28;13.30;99.90
8563;DHT22;16392;52.508;13.468;2024-03-06T13:12:55;12.10;99.90
8563;DHT22;16392;52.508;13.468;2024-03-06T13:15:21;11.80;99.90
8563;DHT22;16392;52.508;13.468;2024-03-06T13:17:48;11.80;99.90
8563;DHT22;16392;52.508;13.468;2024-03-06T13:20:15;11.60;99.90
8563;DHT22;16392;52.508;13.468;2024-03-06T13:22:41;10.70;99.90
8563;DHT22;16392;52.508;13.468;2024-03-06T13:25:09;10.40;99.90
8563;DHT22;16392;52.508;13.468;2024-03-06T13:27:37;10.60;99.90
8563;DHT22;16392;52.508;13.468;2024-03-06T13:30:05;10.40;99.90
8563;DHT22;16392;52.508;13.468;2024-03-06T13:32:33;9.70;99.90
8563;DHT22;16392;52.508;13.468;2024-03-06T13:35:00;9.40;99.90
8563;DHT22;16392;52.508;13.468;2024-03-06T13:37:26;9.50;99.90
8563;DHT22;16392;52.508;13.468;2024-03-06T13:39:53;9.10;99.90
8563;DHT22;16392;52.508;13.468;2024-03-06T13:42:23;8.90;99.90
8563;DHT22;16392;52.508;13.468;2024-03-06T13:44:51;8.90;99.90
8563;DHT22;16392;52.508;13.468;2024-03-06T13:47:18;8.80;99.90
8563;DHT22;16392;52.508;13.468;2024-03-06T13:49:44;8.60;99.90
8563;DHT22;16392;52.508;13.468;2024-03-06T13:52:11;8.60;99.90
8563;DHT22;16392;52.508;13.468;2024-03-06T13:54:39;8.70;99.90
8563;DHT22;16392;52.508;13.468;2024-03-06T13:57:06;8.60;99.90
8563;DHT22;16392;52.508;13.468;2024-03-06T13:59:33;8.70;99.90
8563;DHT22;16392;52.508;13.468;2024-03-06T14:02:02;8.60;99.90
8563;DHT22;16392;52.508;13.468;2024-03-06T14:04:31;8.50;99.90
8563;DHT22;16392;52.508;13.468;2024-03-06T14:06:57;8.50;99.90
8563;DHT22;16392;52.508;13.468;2024-03-06T14:09:25;8.50;99.90
8563;DHT22;16392;52.508;13.468;2024-03-06T14:11:52;8.30;99.90
8563;DHT22;16392;52.508;13.468;2024-03-06T14:14:20;8.30;99.90
8563;DHT22;16392;52.508;13.468;2024-03-06T14:16:46;8.30;99.90
8563;DHT22;16392;52.508;13.468;2024-03-06T14:19:14;8.40;99.90
8563;DHT22;16392;52.508;13.468;2024-03-06T14:21:41;8.50;99.90
8563;DHT22;16392;52.508;13.468;2024-03-06T14:24:07;8.40;99.90
8563;DHT22;16392;52.508;13.468;2024-03-06T14:26:34;8.30;99.90
8563;DHT22;16392;52.508;13.468;2024-03-06T14:29:02;8.10;99.90
8563;DHT22;16392;52.508;13.468;2024-03-06T14:31:31;8.10;99.90
8563;DHT22;16392;52.508;13.468;2024-03-06T14:33:58;8.10;99.90
8563;DHT22;16392;52.508;13.468;2024-03-06T14:36:26;8.20;99.90
8563;DHT22;16392;52.508;13.468;2024-03-06T14:38:52;8.20;99.90
8563;DHT22;16392;52.508;13.468;2024-03-06T14:41:19;8.20;99.90
8563;DHT22;16392;52.508;13.468;2024-03-06T14:43:46;8.30;99.90
8563;DHT22;16392;52.508;13.468;2024-03-06T14:46:13;8.40;99.90
8563;DHT22;16392;52.508;13.468;2024-03-06T14:48:39;8.40;99.90
8563;DHT22;16392;52.508;13.468;2024-03-06T14:51:06;8.40;99.90
8563;DHT22;16392;52.508;13.468;2024-03-06T14:53:35;8.50;99.90
8563;DHT22;16392;52.508;13.468;2024-03-06T14:56:02;8.30;99.90
8563;DHT22;16392;52.508;13.468;2024-03-06T14:58:29;8.30;99.90
8563;DHT22;16392;52.508;13.468;2024-03-06T15:00:56;8.40;99.90
8563;DHT22;16392;52.508;13.468;2024-03-06T15:03:22;8.40;99.90
8563;DHT22;16392;52.508;13.468;2024-03-06T15:05:49;8.50;99.90
8563;DHT22;16392;52.508;13.468;2024-03-06T15:08:16;8.40;99.90
8563;DHT22;16392;52.508;13.468;2024-03-06T15:10:43;8.40;99.90
8563;DHT22;16392;52.508;13.468;2024-03-06T15:13:10;8.40;99.90
8563;DHT22;16392;52.508;13.468;2024-03-06T15:15:39;8.40;99.90
8563;DHT22;16392;52.508;13.468;2024-03-06T15:18:06;8.30;99.90
8563;DHT22;16392;52.508;13.468;2024-03-06T15:20:33;8.30;99.90
8563;DHT22;16392;52.508;13.468;2024-03-06T15:23:00;8.30;99.90
8563;DHT22;16392;52.508;13.468;2024-03-06T15:25:27;8.30;99.90
8563;DHT22;16392;52.508;13.468;2024-03-06T15:27:55;8.20;99.90
8563;DHT22;16392;52.508;13.468;2024-03-06T15:30:22;8.10;99.90
8563;DHT22;16392;52.508;13.468;2024-03-06T15:32:49;8.10;99.90
8563;DHT22;16392;52.508;13.468;2024-03-06T15:35:15;8.10;99.90
8563;DHT22;16392;52.508;13.468;2024-03-06T15:37:42;8.10;99.90
8563;DHT22;16392;52.508;13.468;2024-03-06T15:40:09;8.10;99.90
8563;DHT22;16392;52.508;13.468;2024-03-06T15:42:36;8.10;99.90